sensor_id;sensor_type;location;lat;lon;timestamp;P1;durP1;ratioP1;P2;durP2;ratioP2
22881;SDS011;11608;50.894;5.296;2023-04-06T00:02:05;40.57;;;36.13;;
22881;SDS011;11608;50.894;5.296;2023-04-06T00:04:32;44.27;;;38.13;;
22881;SDS011;11608;50.894;5.296;2023-04-06T00:06:58;44.23;;;37.57;;
22881;SDS011;11608;50.894;5.296;2023-04-06T00:09:24;46.73;;;39.43;;
22881;SDS011;11608;50.894;5.296;2023-04-06T00:11:50;43.57;;;38.70;;
22881;SDS011;11608;50.894;5.296;2023-04-06T00:14:16;43.80;;;38.50;;
22881;SDS011;11608;50.894;5.296;2023-04-06T00:16:42;45.63;;;38.57;;
22881;SDS011;11608;50.894;5.296;2023-04-06T00:19:08;40.57;;;35.73;;
22881;SDS011;11608;50.894;5.296;2023-04-06T00:21:35;42.33;;;37.50;;
22881;SDS011;11608;50.894;5.296;2023-04-06T00:24:13;37.13;;;33.47;;
22881;SDS011;11608;50.894;5.296;2023-04-06T00:26:41;39.43;;;35.13;;
22881;SDS011;11608;50.894;5.296;2023-04-06T00:29:17;37.97;;;34.07;;
22881;SDS011;11608;50.894;5.296;2023-04-06T00:31:45;39.27;;;35.00;;
22881;SDS011;11608;50.894;5.296;2023-04-06T00:34:11;46.93;;;36.43;;
22881;SDS011;11608;50.894;5.296;2023-04-06T00:36:39;41.57;;;36.20;;
22881;SDS011;11608;50.894;5.296;2023-04-06T00:39:13;37.73;;;33.63;;
22881;SDS011;11608;50.894;5.296;2023-04-06T00:41:45;39.03;;;34.17;;
22881;SDS011;11608;50.894;5.296;2023-04-06T00:44:22;39.60;;;35.50;;
22881;SDS011;11608;50.894;5.296;2023-04-06T00:46:54;39.40;;;35.03;;
22881;SDS011;11608;50.894;5.296;2023-04-06T00:49:20;39.07;;;35.07;;
22881;SDS011;11608;50.894;5.296;2023-04-06T00:51:48;37.60;;;33.90;;
22881;SDS011;11608;50.894;5.296;2023-04-06T00:54:15;40.57;;;36.30;;
22881;SDS011;11608;50.894;5.296;2023-04-06T00:56:43;38.73;;;34.70;;
22881;SDS011;11608;50.894;5.296;2023-04-06T00:59:10;39.83;;;35.67;;
22881;SDS011;11608;50.894;5.296;2023-04-06T01:01:36;40.07;;;35.83;;
22881;SDS011;11608;50.894;5.296;2023-04-06T01:04:05;39.93;;;35.80;;
22881;SDS011;11608;50.894;5.296;2023-04-06T01:06:38;41.37;;;37.07;;
22881;SDS011;11608;50.894;5.296;2023-04-06T01:09:05;40.63;;;36.43;;
22881;SDS011;11608;50.894;5.296;2023-04-06T01:11:31;39.00;;;35.00;;
22881;SDS011;11608;50.894;5.296;2023-04-06T01:13:59;39.17;;;35.23;;
22881;SDS011;11608;50.894;5.296;2023-04-06T01:16:28;38.80;;;34.97;;
22881;SDS011;11608;50.894;5.296;2023-04-06T01:19:11;40.33;;;36.10;;
22881;SDS011;11608;50.894;5.296;2023-04-06T01:21:38;38.33;;;34.33;;
22881;SDS011;11608;50.894;5.296;2023-04-06T01:24:09;41.50;;;37.07;;
22881;SDS011;11608;50.894;5.296;2023-04-06T01:26:38;39.63;;;35.60;;
22881;SDS011;11608;50.894;5.296;2023-04-06T01:29:07;39.27;;;35.47;;
22881;SDS011;11608;50.894;5.296;2023-04-06T01:31:36;39.17;;;35.20;;
22881;SDS011;11608;50.894;5.296;2023-04-06T01:34:02;39.43;;;35.60;;
22881;SDS011;11608;50.894;5.296;2023-04-06T01:36:28;38.57;;;34.70;;
22881;SDS011;11608;50.894;5.296;2023-04-06T01:38:56;38.07;;;34.47;;
22881;SDS011;11608;50.894;5.296;2023-04-06T01:41:23;39.10;;;35.43;;
22881;SDS011;11608;50.894;5.296;2023-04-06T01:43:49;39.07;;;34.97;;
22881;SDS011;11608;50.894;5.296;2023-04-06T01:46:19;38.30;;;34.43;;
22881;SDS011;11608;50.894;5.296;2023-04-06T01:48:45;39.67;;;35.37;;
22881;SDS011;11608;50.894;5.296;2023-04-06T01:51:11;40.20;;;36.07;;
22881;SDS011;11608;50.894;5.296;2023-04-06T01:53:39;39.20;;;35.20;;
22881;SDS011;11608;50.894;5.296;2023-04-06T01:56:08;43.90;;;37.20;;
22881;SDS011;11608;50.894;5.296;2023-04-06T01:58:41;41.87;;;36.00;;
22881;SDS011;11608;50.894;5.296;2023-04-06T02:01:10;38.53;;;34.47;;
22881;SDS011;11608;50.894;5.296;2023-04-06T02:03:36;40.40;;;35.37;;
22881;SDS011;11608;50.894;5.296;2023-04-06T02:06:12;41.23;;;35.27;;
22881;SDS011;11608;50.894;5.296;2023-04-06T02:08:38;39.10;;;34.87;;
22881;SDS011;11608;50.894;5.296;2023-04-06T02:11:07;38.67;;;34.57;;
22881;SDS011;11608;50.894;5.296;2023-04-06T02:13:33;39.63;;;33.87;;
22881;SDS011;11608;50.894;5.296;2023-04-06T02:15:59;39.73;;;35.53;;
22881;SDS011;11608;50.894;5.296;2023-04-06T02:18:27;38.03;;;34.10;;
22881;SDS011;11608;50.894;5.296;2023-04-06T02:20:55;37.93;;;34.03;;
22881;SDS011;11608;50.894;5.296;2023-04-06T02:23:22;38.87;;;34.63;;
22881;SDS011;11608;50.894;5.296;2023-04-06T02:25:57;39.23;;;35.13;;
22881;SDS011;11608;50.894;5.296;2023-04-06T02:28:23;39.33;;;35.03;;
22881;SDS011;11608;50.894;5.296;2023-04-06T02:30:51;39.10;;;35.00;;
22881;SDS011;11608;50.894;5.296;2023-04-06T02:33:17;39.27;;;32.90;;
22881;SDS011;11608;50.894;5.296;2023-04-06T02:35:46;38.83;;;34.73;;
22881;SDS011;11608;50.894;5.296;2023-04-06T02:38:14;38.67;;;33.37;;
22881;SDS011;11608;50.894;5.296;2023-04-06T02:40:41;38.47;;;34.43;;
22881;SDS011;11608;50.894;5.296;2023-04-06T02:43:14;42.47;;;35.00;;
22881;SDS011;11608;50.894;5.296;2023-04-06T02:45:42;39.83;;;34.87;;
22881;SDS011;11608;50.894;5.296;2023-04-06T02:48:08;39.13;;;34.07;;
22881;SDS011;11608;50.894;5.296;2023-04-06T02:50:37;38.77;;;34.70;;
22881;SDS011;11608;50.894;5.296;2023-04-06T02:53:03;38.53;;;34.47;;
22881;SDS011;11608;50.894;5.296;2023-04-06T02:55:31;38.80;;;34.43;;
22881;SDS011;11608;50.894;5.296;2023-04-06T02:57:57;38.53;;;34.37;;
22881;SDS011;11608;50.894;5.296;2023-04-06T03:00:30;39.23;;;34.27;;
22881;SDS011;11608;50.894;5.296;2023-04-06T03:02:57;38.97;;;33.67;;
22881;SDS011;11608;50.894;5.296;2023-04-06T03:05:25;38.30;;;33.57;;
22881;SDS011;11608;50.894;5.296;2023-04-06T03:07:56;39.20;;;34.97;;
22881;SDS011;11608;50.894;5.296;2023-04-06T03:10:25;37.63;;;33.57;;
22881;SDS011;11608;50.894;5.296;2023-04-06T03:12:51;37.67;;;33.63;;
22881;SDS011;11608;50.894;5.296;2023-04-06T03:15:19;38.43;;;34.53;;
22881;SDS011;11608;50.894;5.296;2023-04-06T03:17:48;37.10;;;33.13;;
22881;SDS011;11608;50.894;5.296;2023-04-06T03:20:16;37.97;;;33.97;;
22881;SDS011;11608;50.894;5.296;2023-04-06T03:22:51;36.70;;;32.97;;
22881;SDS011;11608;50.894;5.296;2023-04-06T03:25:17;37.57;;;33.83;;
22881;SDS011;11608;50.894;5.296;2023-04-06T03:27:45;37.57;;;33.37;;
22881;SDS011;11608;50.894;5.296;2023-04-06T03:30:12;37.77;;;33.83;;
22881;SDS011;11608;50.894;5.296;2023-04-06T03:32:38;39.50;;;35.30;;
22881;SDS011;11608;50.894;5.296;2023-04-06T03:35:06;38.97;;;35.17;;
22881;SDS011;11608;50.894;5.296;2023-04-06T03:37:42;38.77;;;34.70;;
22881;SDS011;11608;50.894;5.296;2023-04-06T03:40:09;39.17;;;35.23;;
22881;SDS011;11608;50.894;5.296;2023-04-06T03:42:37;37.17;;;33.33;;
22881;SDS011;11608;50.894;5.296;2023-04-06T03:45:03;38.67;;;34.60;;
22881;SDS011;11608;50.894;5.296;2023-04-06T03:47:30;39.37;;;35.37;;
22881;SDS011;11608;50.894;5.296;2023-04-06T03:49:58;38.97;;;34.90;;
22881;SDS011;11608;50.894;5.296;2023-04-06T03:52:42;41.10;;;36.93;;
22881;SDS011;11608;50.894;5.296;2023-04-06T03:55:08;38.93;;;35.03;;
22881;SDS011;11608;50.894;5.296;2023-04-06T03:57:34;39.17;;;35.13;;
22881;SDS011;11608;50.894;5.296;2023-04-06T04:00:03;39.40;;;35.33;;
22881;SDS011;11608;50.894;5.296;2023-04-06T04:02:29;39.63;;;35.53;;
22881;SDS011;11608;50.894;5.296;2023-04-06T04:04:58;38.67;;;34.73;;
22881;SDS011;11608;50.894;5.296;2023-04-06T04:07:26;38.57;;;34.53;;
22881;SDS011;11608;50.894;5.296;2023-04-06T04:09:54;39.37;;;35.23;;
22881;SDS011;11608;50.894;5.296;2023-04-06T04:12:20;39.23;;;35.43;;
22881;SDS011;11608;50.894;5.296;2023-04-06T04:14:49;40.90;;;36.20;;
22881;SDS011;11608;50.894;5.296;2023-04-06T04:17:25;39.83;;;35.70;;
22881;SDS011;11608;50.894;5.296;2023-04-06T04:19:57;38.97;;;34.77;;
22881;SDS011;11608;50.894;5.296;2023-04-06T04:22:27;39.57;;;35.57;;
22881;SDS011;11608;50.894;5.296;2023-04-06T04:24:53;39.67;;;35.70;;
22881;SDS011;11608;50.894;5.296;2023-04-06T04:27:19;39.00;;;34.90;;
22881;SDS011;11608;50.894;5.296;2023-04-06T04:29:46;40.07;;;35.90;;
22881;SDS011;11608;50.894;5.296;2023-04-06T04:32:12;41.13;;;36.80;;
22881;SDS011;11608;50.894;5.296;2023-04-06T04:34:39;39.63;;;35.53;;
22881;SDS011;11608;50.894;5.296;2023-04-06T04:37:05;39.00;;;35.00;;
22881;SDS011;11608;50.894;5.296;2023-04-06T04:39:34;39.33;;;35.33;;
22881;SDS011;11608;50.894;5.296;2023-04-06T04:42:02;38.53;;;34.70;;
22881;SDS011;11608;50.894;5.296;2023-04-06T04:44:31;40.80;;;36.57;;
22881;SDS011;11608;50.894;5.296;2023-04-06T04:46:57;41.30;;;36.87;;
22881;SDS011;11608;50.894;5.296;2023-04-06T04:49:28;40.93;;;36.70;;
22881;SDS011;11608;50.894;5.296;2023-04-06T04:51:55;41.13;;;36.77;;
22881;SDS011;11608;50.894;5.296;2023-04-06T04:54:23;42.00;;;36.73;;
22881;SDS011;11608;50.894;5.296;2023-04-06T04:56:52;40.33;;;36.33;;
22881;SDS011;11608;50.894;5.296;2023-04-06T04:59:18;39.17;;;34.87;;
22881;SDS011;11608;50.894;5.296;2023-04-06T05:01:49;38.77;;;34.90;;
22881;SDS011;11608;50.894;5.296;2023-04-06T05:04:20;43.83;;;34.90;;
22881;SDS011;11608;50.894;5.296;2023-04-06T05:06:46;38.30;;;34.27;;
22881;SDS011;11608;50.894;5.296;2023-04-06T05:09:12;37.33;;;33.53;;
22881;SDS011;11608;50.894;5.296;2023-04-06T05:11:38;37.97;;;33.93;;
22881;SDS011;11608;50.894;5.296;2023-04-06T05:14:09;38.97;;;34.57;;
22881;SDS011;11608;50.894;5.296;2023-04-06T05:16:35;39.40;;;35.20;;
22881;SDS011;11608;50.894;5.296;2023-04-06T05:19:04;40.20;;;35.97;;
22881;SDS011;11608;50.894;5.296;2023-04-06T05:21:32;38.90;;;34.67;;
22881;SDS011;11608;50.894;5.296;2023-04-06T05:23:58;37.37;;;33.67;;
22881;SDS011;11608;50.894;5.296;2023-04-06T05:26:27;37.80;;;33.90;;
22881;SDS011;11608;50.894;5.296;2023-04-06T05:28:53;37.23;;;33.47;;
22881;SDS011;11608;50.894;5.296;2023-04-06T05:31:21;37.17;;;33.20;;
22881;SDS011;11608;50.894;5.296;2023-04-06T05:33:50;37.57;;;32.83;;
22881;SDS011;11608;50.894;5.296;2023-04-06T05:36:20;37.33;;;33.57;;
22881;SDS011;11608;50.894;5.296;2023-04-06T05:38:49;41.93;;;35.10;;
22881;SDS011;11608;50.894;5.296;2023-04-06T05:41:17;40.13;;;34.87;;
22881;SDS011;11608;50.894;5.296;2023-04-06T05:43:43;39.00;;;33.70;;
22881;SDS011;11608;50.894;5.296;2023-04-06T05:46:12;37.67;;;33.83;;
22881;SDS011;11608;50.894;5.296;2023-04-06T05:48:38;41.43;;;32.97;;
22881;SDS011;11608;50.894;5.296;2023-04-06T05:51:06;35.50;;;31.80;;
22881;SDS011;11608;50.894;5.296;2023-04-06T05:53:32;35.57;;;32.07;;
22881;SDS011;11608;50.894;5.296;2023-04-06T05:56:04;39.27;;;32.87;;
22881;SDS011;11608;50.894;5.296;2023-04-06T05:58:38;38.33;;;34.13;;
22881;SDS011;11608;50.894;5.296;2023-04-06T06:01:06;37.93;;;33.93;;
22881;SDS011;11608;50.894;5.296;2023-04-06T06:03:34;38.77;;;34.63;;
22881;SDS011;11608;50.894;5.296;2023-04-06T06:06:11;36.43;;;32.60;;
22881;SDS011;11608;50.894;5.296;2023-04-06T06:08:37;37.80;;;33.80;;
22881;SDS011;11608;50.894;5.296;2023-04-06T06:11:05;38.90;;;33.77;;
22881;SDS011;11608;50.894;5.296;2023-04-06T06:13:31;38.75;;;34.70;;
22881;SDS011;11608;50.894;5.296;2023-04-06T06:16:02;36.42;;;32.50;;
22881;SDS011;11608;50.894;5.296;2023-04-06T06:18:30;35.72;;;31.90;;
22881;SDS011;11608;50.894;5.296;2023-04-06T06:20:56;42.28;;;32.67;;
22881;SDS011;11608;50.894;5.296;2023-04-06T06:23:22;36.40;;;32.60;;
22881;SDS011;11608;50.894;5.296;2023-04-06T06:25:48;37.00;;;33.10;;
22881;SDS011;11608;50.894;5.296;2023-04-06T06:28:26;36.37;;;31.70;;
22881;SDS011;11608;50.894;5.296;2023-04-06T06:30:55;36.80;;;31.98;;
22881;SDS011;11608;50.894;5.296;2023-04-06T06:33:21;38.45;;;32.10;;
22881;SDS011;11608;50.894;5.296;2023-04-06T06:35:57;34.83;;;31.15;;
22881;SDS011;11608;50.894;5.296;2023-04-06T06:38:23;33.85;;;30.17;;
22881;SDS011;11608;50.894;5.296;2023-04-06T06:40:57;34.10;;;30.23;;
22881;SDS011;11608;50.894;5.296;2023-04-06T06:43:23;34.57;;;31.03;;
22881;SDS011;11608;50.894;5.296;2023-04-06T06:45:52;33.30;;;29.80;;
22881;SDS011;11608;50.894;5.296;2023-04-06T06:48:18;33.58;;;30.08;;
22881;SDS011;11608;50.894;5.296;2023-04-06T06:50:46;33.90;;;30.50;;
22881;SDS011;11608;50.894;5.296;2023-04-06T06:53:13;33.15;;;29.80;;
22881;SDS011;11608;50.894;5.296;2023-04-06T06:55:40;32.07;;;28.87;;
22881;SDS011;11608;50.894;5.296;2023-04-06T06:58:09;34.30;;;29.75;;
22881;SDS011;11608;50.894;5.296;2023-04-06T07:00:42;33.67;;;30.17;;
22881;SDS011;11608;50.894;5.296;2023-04-06T07:03:11;34.33;;;30.77;;
22881;SDS011;11608;50.894;5.296;2023-04-06T07:05:37;34.95;;;31.25;;
22881;SDS011;11608;50.894;5.296;2023-04-06T07:08:06;33.33;;;30.13;;
22881;SDS011;11608;50.894;5.296;2023-04-06T07:10:33;33.33;;;29.80;;
22881;SDS011;11608;50.894;5.296;2023-04-06T07:13:21;33.22;;;30.05;;
22881;SDS011;11608;50.894;5.296;2023-04-06T07:15:48;34.88;;;30.42;;
22881;SDS011;11608;50.894;5.296;2023-04-06T07:18:17;33.53;;;29.45;;
22881;SDS011;11608;50.894;5.296;2023-04-06T07:20:46;33.70;;;30.25;;
22881;SDS011;11608;50.894;5.296;2023-04-06T07:23:12;33.15;;;29.77;;
22881;SDS011;11608;50.894;5.296;2023-04-06T07:25:38;33.40;;;29.88;;
22881;SDS011;11608;50.894;5.296;2023-04-06T07:28:09;33.20;;;29.90;;
22881;SDS011;11608;50.894;5.296;2023-04-06T07:30:36;33.50;;;30.20;;
22881;SDS011;11608;50.894;5.296;2023-04-06T07:33:02;35.53;;;31.83;;
22881;SDS011;11608;50.894;5.296;2023-04-06T07:35:31;34.63;;;31.23;;
22881;SDS011;11608;50.894;5.296;2023-04-06T07:38:02;34.72;;;30.45;;
22881;SDS011;11608;50.894;5.296;2023-04-06T07:40:31;33.40;;;30.10;;
22881;SDS011;11608;50.894;5.296;2023-04-06T07:42:57;36.40;;;31.30;;
22881;SDS011;11608;50.894;5.296;2023-04-06T07:45:23;33.80;;;30.42;;
22881;SDS011;11608;50.894;5.296;2023-04-06T07:47:50;32.85;;;29.42;;
22881;SDS011;11608;50.894;5.296;2023-04-06T07:50:18;33.38;;;29.88;;
22881;SDS011;11608;50.894;5.296;2023-04-06T07:52:57;32.88;;;29.58;;
22881;SDS011;11608;50.894;5.296;2023-04-06T07:55:25;32.03;;;28.88;;
22881;SDS011;11608;50.894;5.296;2023-04-06T07:57:59;31.98;;;28.50;;
22881;SDS011;11608;50.894;5.296;2023-04-06T08:00:28;32.50;;;29.13;;
22881;SDS011;11608;50.894;5.296;2023-04-06T08:03:12;32.08;;;28.77;;
22881;SDS011;11608;50.894;5.296;2023-04-06T08:05:38;34.03;;;30.35;;
22881;SDS011;11608;50.894;5.296;2023-04-06T08:08:04;31.45;;;28.15;;
22881;SDS011;11608;50.894;5.296;2023-04-06T08:10:39;32.38;;;29.15;;
22881;SDS011;11608;50.894;5.296;2023-04-06T08:13:05;30.15;;;27.15;;
22881;SDS011;11608;50.894;5.296;2023-04-06T08:15:33;31.75;;;28.50;;
22881;SDS011;11608;50.894;5.296;2023-04-06T08:17:59;33.17;;;29.40;;
22881;SDS011;11608;50.894;5.296;2023-04-06T08:20:28;31.70;;;28.45;;
22881;SDS011;11608;50.894;5.296;2023-04-06T08:23:12;34.42;;;28.45;;
22881;SDS011;11608;50.894;5.296;2023-04-06T08:25:38;30.73;;;27.75;;
22881;SDS011;11608;50.894;5.296;2023-04-06T08:28:06;30.38;;;27.38;;
22881;SDS011;11608;50.894;5.296;2023-04-06T08:30:34;30.05;;;27.13;;
22881;SDS011;11608;50.894;5.296;2023-04-06T08:33:00;31.33;;;26.80;;
22881;SDS011;11608;50.894;5.296;2023-04-06T08:35:27;30.90;;;27.77;;
22881;SDS011;11608;50.894;5.296;2023-04-06T08:37:55;31.10;;;27.88;;
22881;SDS011;11608;50.894;5.296;2023-04-06T08:40:22;31.15;;;28.17;;
22881;SDS011;11608;50.894;5.296;2023-04-06T08:42:51;31.02;;;27.98;;
22881;SDS011;11608;50.894;5.296;2023-04-06T08:45:18;30.80;;;27.85;;
22881;SDS011;11608;50.894;5.296;2023-04-06T08:47:47;29.17;;;26.48;;
22881;SDS011;11608;50.894;5.296;2023-04-06T08:50:14;29.35;;;26.23;;
22881;SDS011;11608;50.894;5.296;2023-04-06T08:52:47;29.42;;;26.75;;
22881;SDS011;11608;50.894;5.296;2023-04-06T08:55:16;29.88;;;27.17;;
22881;SDS011;11608;50.894;5.296;2023-04-06T08:57:45;30.02;;;27.10;;
22881;SDS011;11608;50.894;5.296;2023-04-06T09:00:11;30.42;;;27.38;;
22881;SDS011;11608;50.894;5.296;2023-04-06T09:02:42;29.65;;;27.00;;
22881;SDS011;11608;50.894;5.296;2023-04-06T09:05:13;30.08;;;27.08;;
22881;SDS011;11608;50.894;5.296;2023-04-06T09:07:40;29.05;;;25.92;;
22881;SDS011;11608;50.894;5.296;2023-04-06T09:10:14;30.05;;;27.00;;
22881;SDS011;11608;50.894;5.296;2023-04-06T09:12:44;29.63;;;26.80;;
22881;SDS011;11608;50.894;5.296;2023-04-06T09:15:22;28.92;;;26.02;;
22881;SDS011;11608;50.894;5.296;2023-04-06T09:17:48;29.08;;;26.25;;
22881;SDS011;11608;50.894;5.296;2023-04-06T09:20:21;30.25;;;27.23;;
22881;SDS011;11608;50.894;5.296;2023-04-06T09:22:57;27.35;;;24.98;;
22881;SDS011;11608;50.894;5.296;2023-04-06T09:25:28;28.88;;;26.23;;
22881;SDS011;11608;50.894;5.296;2023-04-06T09:28:05;29.17;;;26.60;;
22881;SDS011;11608;50.894;5.296;2023-04-06T09:30:47;29.48;;;26.67;;
22881;SDS011;11608;50.894;5.296;2023-04-06T09:33:21;30.15;;;27.55;;
22881;SDS011;11608;50.894;5.296;2023-04-06T09:35:50;30.13;;;27.55;;
22881;SDS011;11608;50.894;5.296;2023-04-06T09:38:16;30.45;;;27.85;;
22881;SDS011;11608;50.894;5.296;2023-04-06T09:40:49;32.13;;;29.48;;
22881;SDS011;11608;50.894;5.296;2023-04-06T09:43:32;31.77;;;28.85;;
22881;SDS011;11608;50.894;5.296;2023-04-06T09:45:58;32.38;;;29.23;;
22881;SDS011;11608;50.894;5.296;2023-04-06T09:48:28;33.92;;;30.80;;
22881;SDS011;11608;50.894;5.296;2023-04-06T09:51:04;32.40;;;29.35;;
22881;SDS011;11608;50.894;5.296;2023-04-06T09:53:30;31.98;;;29.05;;
22881;SDS011;11608;50.894;5.296;2023-04-06T09:56:07;31.95;;;29.10;;
22881;SDS011;11608;50.894;5.296;2023-04-06T09:58:36;30.83;;;28.00;;
22881;SDS011;11608;50.894;5.296;2023-04-06T10:01:08;31.58;;;28.60;;
22881;SDS011;11608;50.894;5.296;2023-04-06T10:04:40;32.22;;;29.10;;
22881;SDS011;11608;50.894;5.296;2023-04-06T10:06:39;32.05;;;29.30;;
22881;SDS011;11608;50.894;5.296;2023-04-06T10:09:08;31.35;;;28.45;;
22881;SDS011;11608;50.894;5.296;2023-04-06T10:11:38;31.45;;;28.33;;
22881;SDS011;11608;50.894;5.296;2023-04-06T10:14:14;33.45;;;30.27;;
22881;SDS011;11608;50.894;5.296;2023-04-06T10:16:43;33.00;;;29.80;;
22881;SDS011;11608;50.894;5.296;2023-04-06T10:19:23;33.05;;;29.92;;
22881;SDS011;11608;50.894;5.296;2023-04-06T10:21:52;32.08;;;29.35;;
22881;SDS011;11608;50.894;5.296;2023-04-06T10:24:23;32.70;;;29.90;;
22881;SDS011;11608;50.894;5.296;2023-04-06T10:27:00;32.97;;;29.98;;
22881;SDS011;11608;50.894;5.296;2023-04-06T10:29:27;32.55;;;29.75;;
22881;SDS011;11608;50.894;5.296;2023-04-06T10:31:56;32.88;;;29.88;;
22881;SDS011;11608;50.894;5.296;2023-04-06T10:34:22;32.47;;;29.60;;
22881;SDS011;11608;50.894;5.296;2023-04-06T10:36:50;33.17;;;29.95;;
22881;SDS011;11608;50.894;5.296;2023-04-06T10:39:23;30.95;;;28.15;;
22881;SDS011;11608;50.894;5.296;2023-04-06T10:41:51;31.83;;;28.92;;
22881;SDS011;11608;50.894;5.296;2023-04-06T10:44:23;30.80;;;27.80;;
22881;SDS011;11608;50.894;5.296;2023-04-06T10:46:56;31.10;;;28.40;;
22881;SDS011;11608;50.894;5.296;2023-04-06T10:49:25;30.08;;;27.58;;
22881;SDS011;11608;50.894;5.296;2023-04-06T10:51:54;29.95;;;27.45;;
22881;SDS011;11608;50.894;5.296;2023-04-06T10:54:21;29.60;;;27.02;;
22881;SDS011;11608;50.894;5.296;2023-04-06T10:56:50;31.13;;;28.25;;
22881;SDS011;11608;50.894;5.296;2023-04-06T10:59:23;29.42;;;26.83;;
22881;SDS011;11608;50.894;5.296;2023-04-06T11:01:50;29.63;;;27.13;;
22881;SDS011;11608;50.894;5.296;2023-04-06T11:04:16;29.70;;;27.05;;
22881;SDS011;11608;50.894;5.296;2023-04-06T11:06:46;31.70;;;28.80;;
22881;SDS011;11608;50.894;5.296;2023-04-06T11:09:22;30.35;;;27.45;;
22881;SDS011;11608;50.894;5.296;2023-04-06T11:11:53;29.27;;;26.67;;
22881;SDS011;11608;50.894;5.296;2023-04-06T11:14:23;30.58;;;27.58;;
22881;SDS011;11608;50.894;5.296;2023-04-06T11:16:54;28.67;;;26.17;;
22881;SDS011;11608;50.894;5.296;2023-04-06T11:19:20;29.55;;;26.95;;
22881;SDS011;11608;50.894;5.296;2023-04-06T11:21:47;29.23;;;26.60;;
22881;SDS011;11608;50.894;5.296;2023-04-06T11:26:47;29.40;;;26.80;;
22881;SDS011;11608;50.894;5.296;2023-04-06T11:29:22;30.00;;;27.60;;
22881;SDS011;11608;50.894;5.296;2023-04-06T11:31:49;29.45;;;26.92;;
22881;SDS011;11608;50.894;5.296;2023-04-06T11:34:18;28.90;;;26.45;;
22881;SDS011;11608;50.894;5.296;2023-04-06T11:36:58;30.60;;;28.08;;
22881;SDS011;11608;50.894;5.296;2023-04-06T11:39:26;30.92;;;28.13;;
22881;SDS011;11608;50.894;5.296;2023-04-06T11:41:54;30.77;;;27.90;;
22881;SDS011;11608;50.894;5.296;2023-04-06T11:44:35;29.23;;;26.73;;
22881;SDS011;11608;50.894;5.296;2023-04-06T11:47:02;30.27;;;27.73;;
22881;SDS011;11608;50.894;5.296;2023-04-06T11:49:29;31.83;;;29.10;;
22881;SDS011;11608;50.894;5.296;2023-04-06T11:51:58;31.48;;;28.48;;
22881;SDS011;11608;50.894;5.296;2023-04-06T11:54:32;30.58;;;28.08;;
22881;SDS011;11608;50.894;5.296;2023-04-06T11:56:58;32.10;;;29.30;;
22881;SDS011;11608;50.894;5.296;2023-04-06T11:59:25;30.25;;;27.65;;
22881;SDS011;11608;50.894;5.296;2023-04-06T12:01:59;31.25;;;28.60;;
22881;SDS011;11608;50.894;5.296;2023-04-06T12:04:25;30.23;;;27.65;;
22881;SDS011;11608;50.894;5.296;2023-04-06T12:06:53;29.90;;;27.52;;
22881;SDS011;11608;50.894;5.296;2023-04-06T12:09:20;30.50;;;27.95;;
22881;SDS011;11608;50.894;5.296;2023-04-06T12:11:48;30.23;;;27.77;;
22881;SDS011;11608;50.894;5.296;2023-04-06T12:14:14;29.77;;;27.38;;
22881;SDS011;11608;50.894;5.296;2023-04-06T12:16:43;31.35;;;28.52;;
22881;SDS011;11608;50.894;5.296;2023-04-06T12:19:11;30.45;;;27.88;;
22881;SDS011;11608;50.894;5.296;2023-04-06T12:21:37;31.70;;;29.00;;
22881;SDS011;11608;50.894;5.296;2023-04-06T12:24:14;31.55;;;28.83;;
22881;SDS011;11608;50.894;5.296;2023-04-06T12:26:43;31.00;;;28.40;;
22881;SDS011;11608;50.894;5.296;2023-04-06T12:29:09;31.77;;;28.92;;
22881;SDS011;11608;50.894;5.296;2023-04-06T12:31:36;31.08;;;28.38;;
22881;SDS011;11608;50.894;5.296;2023-04-06T12:34:07;30.58;;;28.10;;
22881;SDS011;11608;50.894;5.296;2023-04-06T12:36:34;31.20;;;28.40;;
22881;SDS011;11608;50.894;5.296;2023-04-06T12:39:00;29.88;;;27.48;;
22881;SDS011;11608;50.894;5.296;2023-04-06T12:41:28;30.77;;;28.17;;
22881;SDS011;11608;50.894;5.296;2023-04-06T12:43:58;31.20;;;28.50;;
22881;SDS011;11608;50.894;5.296;2023-04-06T12:46:27;30.50;;;28.00;;
22881;SDS011;11608;50.894;5.296;2023-04-06T12:48:55;32.33;;;29.73;;
22881;SDS011;11608;50.894;5.296;2023-04-06T12:51:22;32.80;;;29.80;;
22881;SDS011;11608;50.894;5.296;2023-04-06T12:53:51;31.50;;;28.80;;
22881;SDS011;11608;50.894;5.296;2023-04-06T12:56:18;32.45;;;29.67;;
22881;SDS011;11608;50.894;5.296;2023-04-06T12:58:49;32.08;;;29.35;;
22881;SDS011;11608;50.894;5.296;2023-04-06T13:01:18;32.60;;;29.58;;
22881;SDS011;11608;50.894;5.296;2023-04-06T13:03:45;32.65;;;29.85;;
22881;SDS011;11608;50.894;5.296;2023-04-06T13:06:11;32.15;;;29.40;;
22881;SDS011;11608;50.894;5.296;2023-04-06T13:08:39;32.75;;;29.77;;
22881;SDS011;11608;50.894;5.296;2023-04-06T13:11:08;31.92;;;29.23;;
22881;SDS011;11608;50.894;5.296;2023-04-06T13:13:39;32.67;;;29.73;;
22881;SDS011;11608;50.894;5.296;2023-04-06T13:16:09;30.77;;;28.17;;
22881;SDS011;11608;50.894;5.296;2023-04-06T13:18:35;31.75;;;29.05;;
22881;SDS011;11608;50.894;5.296;2023-04-06T13:21:03;30.88;;;28.27;;
22881;SDS011;11608;50.894;5.296;2023-04-06T13:23:32;31.27;;;28.48;;
22881;SDS011;11608;50.894;5.296;2023-04-06T13:26:02;31.95;;;29.13;;
22881;SDS011;11608;50.894;5.296;2023-04-06T13:28:31;31.75;;;29.15;;
22881;SDS011;11608;50.894;5.296;2023-04-06T13:31:00;31.27;;;28.48;;
22881;SDS011;11608;50.894;5.296;2023-04-06T13:33:27;31.90;;;29.20;;
22881;SDS011;11608;50.894;5.296;2023-04-06T13:35:53;33.42;;;30.42;;
22881;SDS011;11608;50.894;5.296;2023-04-06T13:38:20;31.48;;;28.65;;
22881;SDS011;11608;50.894;5.296;2023-04-06T13:40:49;31.23;;;28.45;;
22881;SDS011;11608;50.894;5.296;2023-04-06T13:43:18;31.90;;;29.20;;
22881;SDS011;11608;50.894;5.296;2023-04-06T13:46:03;31.35;;;28.65;;
22881;SDS011;11608;50.894;5.296;2023-04-06T13:48:29;31.60;;;28.92;;
22881;SDS011;11608;50.894;5.296;2023-04-06T13:50:56;31.05;;;28.30;;
22881;SDS011;11608;50.894;5.296;2023-04-06T13:53:23;31.35;;;28.80;;
22881;SDS011;11608;50.894;5.296;2023-04-06T13:55:53;31.60;;;28.73;;
22881;SDS011;11608;50.894;5.296;2023-04-06T13:58:22;30.25;;;27.77;;
22881;SDS011;11608;50.894;5.296;2023-04-06T14:00:48;31.33;;;28.80;;
22881;SDS011;11608;50.894;5.296;2023-04-06T14:03:14;31.60;;;28.98;;
22881;SDS011;11608;50.894;5.296;2023-04-06T14:05:48;33.70;;;30.83;;
22881;SDS011;11608;50.894;5.296;2023-04-06T14:08:14;33.35;;;30.45;;
22881;SDS011;11608;50.894;5.296;2023-04-06T14:10:47;33.60;;;30.70;;
22881;SDS011;11608;50.894;5.296;2023-04-06T14:13:16;31.77;;;29.17;;
22881;SDS011;11608;50.894;5.296;2023-04-06T14:15:44;32.22;;;29.42;;
22881;SDS011;11608;50.894;5.296;2023-04-06T14:18:10;32.58;;;29.85;;
22881;SDS011;11608;50.894;5.296;2023-04-06T14:20:37;32.70;;;29.85;;
22881;SDS011;11608;50.894;5.296;2023-04-06T14:23:08;32.60;;;29.70;;
22881;SDS011;11608;50.894;5.296;2023-04-06T14:25:34;32.65;;;29.70;;
22881;SDS011;11608;50.894;5.296;2023-04-06T14:28:03;32.60;;;29.85;;
22881;SDS011;11608;50.894;5.296;2023-04-06T14:30:39;33.85;;;30.58;;
22881;SDS011;11608;50.894;5.296;2023-04-06T14:33:08;32.80;;;30.08;;
22881;SDS011;11608;50.894;5.296;2023-04-06T14:35:40;33.17;;;30.48;;